Time;durP1;ratioP1;P1;durP2;ratioP2;P2;SDS_P1;SDS_P2;PMS_P1;PMS_P2;Temp;Humidity;BMP_temperature;BMP_pressure;BME280_temperature;BME280_humidity;BME280_pressure;Samples;Min_cycle;Max_cycle;Signal;HPM_P1;HPM_P2
2023/12/04 00:00:27;;;;;;;36.40;32.80;;;;;;;-4.99;100.00;98427.23;109582;1283;22326;-80
2023/12/04 00:03:15;;;;;;;34.60;31.20;;;;;;;-4.96;100.00;98425.70;109590;1290;22134;-82
2023/12/04 00:05:46;;;;;;;36.70;33.10;;;;;;;-4.91;100.00;98423.80;109399;1282;22304;-84
2023/12/04 00:08:14;;;;;;;36.90;33.10;;;;;;;-4.91;100.00;98424.25;109580;1282;22214;-83
2023/12/04 00:10:42;;;;;;;37.40;33.30;;;;;;;-4.94;100.00;98427.94;109578;1280;22332;-84
2023/12/04 00:13:10;;;;;;;37.30;33.50;;;;;;;-4.97;100.00;98427.77;109567;1290;22932;-84
2023/12/04 00:15:38;;;;;;;33.40;30.00;;;;;;;-4.96;100.00;98430.48;109574;1286;23036;-84
2023/12/04 00:18:06;;;;;;;34.40;30.60;;;;;;;-4.91;100.00;98431.69;109621;1283;23109;-86
2023/12/04 00:20:34;;;;;;;34.00;30.70;;;;;;;-4.87;100.00;98430.59;109649;1290;22129;-82
2023/12/04 00:23:02;;;;;;;35.20;31.60;;;;;;;-4.87;100.00;98436.17;109605;1284;22192;-86
2023/12/04 00:25:30;;;;;;;33.20;29.90;;;;;;;-4.88;100.00;98439.83;109631;1283;22211;-83
2023/12/04 00:27:58;;;;;;;35.20;31.70;;;;;;;-4.91;100.00;98442.37;109589;1289;22879;-83
2023/12/04 00:30:26;;;;;;;34.30;30.90;;;;;;;-4.88;100.00;98441.46;109561;1286;22303;-85
2023/12/04 00:32:54;;;;;;;34.00;30.60;;;;;;;-4.80;100.00;98434.25;109579;1284;22734;-85
2023/12/04 00:35:22;;;;;;;34.80;31.40;;;;;;;-4.77;100.00;98434.94;109753;1286;22159;-82
2023/12/04 00:37:50;;;;;;;39.10;35.40;;;;;;;-4.80;100.00;98436.81;109547;1277;22132;-83
2023/12/04 00:40:18;;;;;;;35.40;32.00;;;;;;;-4.84;100.00;98436.77;109462;1283;22409;-84
2023/12/04 00:42:46;;;;;;;34.50;31.10;;;;;;;-4.85;100.00;98432.00;109575;1283;22221;-83
2023/12/04 00:45:15;;;;;;;32.60;29.50;;;;;;;-4.78;100.00;98433.71;109594;1277;22300;-82
2023/12/04 00:47:43;;;;;;;32.20;28.90;;;;;;;-4.76;100.00;98427.80;109480;1287;22203;-86
2023/12/04 00:50:11;;;;;;;34.70;31.40;;;;;;;-4.76;100.00;98428.68;109618;1279;22174;-86
2023/12/04 00:52:39;;;;;;;35.40;32.20;;;;;;;-4.78;100.00;98431.23;109571;1290;22944;-87
2023/12/04 00:55:07;;;;;;;32.20;29.10;;;;;;;-4.80;100.00;98431.30;109666;1286;22342;-84
2023/12/04 00:57:35;;;;;;;32.10;29.10;;;;;;;-4.81;100.00;98432.27;109597;1276;22227;-82
2023/12/04 01:00:04;;;;;;;31.20;28.20;;;;;;;-4.81;100.00;98435.46;109589;1290;22288;-83
2023/12/04 01:02:32;;;;;;;31.70;28.70;;;;;;;-4.79;100.00;98437.76;109572;1286;22278;-83
2023/12/04 01:05:00;;;;;;;34.10;30.70;;;;;;;-4.76;100.00;98437.10;109574;1290;22259;-83
2023/12/04 01:07:29;;;;;;;34.70;31.50;;;;;;;-4.77;100.00;98437.73;109576;1286;22968;-84
2023/12/04 01:09:57;;;;;;;33.40;30.20;;;;;;;-4.80;100.00;98439.69;109585;1286;22218;-83
2023/12/04 01:12:25;;;;;;;32.10;28.90;;;;;;;-4.83;100.00;98438.41;109600;1280;22213;-82
2023/12/04 01:14:54;;;;;;;32.20;29.10;;;;;;;-4.81;100.00;98440.89;109556;1279;22320;-82
2023/12/04 01:17:22;;;;;;;33.60;30.30;;;;;;;-4.78;100.00;98440.52;109457;1290;194751;-83
2023/12/04 01:19:50;;;;;;;35.60;32.30;;;;;;;-4.77;100.00;98439.00;109574;1286;22197;-82
2023/12/04 01:22:18;;;;;;;34.20;30.90;;;;;;;-4.78;100.00;98446.42;109577;1290;22991;-84
2023/12/04 01:24:46;;;;;;;34.90;31.50;;;;;;;-4.81;100.00;98447.68;109567;1290;22926;-83
2023/12/04 01:27:14;;;;;;;34.00;30.60;;;;;;;-4.81;100.00;98451.23;109591;1283;22430;-84
2023/12/04 01:29:42;;;;;;;32.30;29.10;;;;;;;-4.79;100.00;98452.88;109695;1289;22879;-84
2023/12/04 01:32:10;;;;;;;32.00;28.80;;;;;;;-4.74;100.00;98460.86;109710;1289;22223;-84
2023/12/04 01:34:38;;;;;;;33.50;30.30;;;;;;;-4.69;100.00;98459.58;109630;1286;22999;-84
2023/12/04 01:37:08;;;;;;;37.30;33.70;;;;;;;-4.68;100.00;98457.69;109621;1290;22191;-83
2023/12/04 01:39:36;;;;;;;37.20;33.70;;;;;;;-4.72;100.00;98458.48;109599;1290;22413;-83
2023/12/04 01:42:04;;;;;;;35.20;31.90;;;;;;;-4.73;100.00;98456.20;109352;1289;22814;-83
2023/12/04 01:44:32;;;;;;;36.00;32.40;;;;;;;-4.76;100.00;98459.30;109588;1290;22231;-84
2023/12/04 01:47:01;;;;;;;33.20;30.10;;;;;;;-4.80;100.00;98455.78;109587;1283;23105;-82
2023/12/04 01:49:29;;;;;;;30.30;27.50;;;;;;;-4.78;100.00;98458.23;109594;1279;22239;-83
2023/12/04 01:51:58;;;;;;;35.30;31.80;;;;;;;-4.76;100.00;98454.16;109564;1284;22219;-84
2023/12/04 01:54:26;;;;;;;34.90;31.60;;;;;;;-4.76;100.00;98452.14;109559;1289;22221;-83
2023/12/04 01:56:54;;;;;;;35.90;32.20;;;;;;;-4.77;100.00;98450.95;109559;1277;22327;-84
2023/12/04 01:59:22;;;;;;;35.60;32.20;;;;;;;-4.84;100.00;98447.48;109472;1290;22248;-83
2023/12/04 02:01:51;;;;;;;36.00;31.90;;;;;;;-4.84;100.00;98449.63;109565;1279;22235;-83
2023/12/04 02:04:19;;;;;;;32.80;29.50;;;;;;;-4.81;100.00;98450.72;109567;1272;22163;-82
2023/12/04 02:06:47;;;;;;;34.80;31.30;;;;;;;-4.81;100.00;98453.23;109571;1287;22209;-82
2023/12/04 02:09:16;;;;;;;36.40;32.50;;;;;;;-4.84;100.00;98447.45;109574;1286;22210;-82
2023/12/04 02:11:44;;;;;;;34.20;30.90;;;;;;;-4.90;100.00;98446.89;109583;1286;23007;-83
2023/12/04 02:14:12;;;;;;;35.00;31.40;;;;;;;-4.90;100.00;98448.56;109539;1286;22273;-83
2023/12/04 02:16:42;;;;;;;33.60;30.30;;;;;;;-4.86;100.00;98447.42;109639;1290;22225;-82
2023/12/04 02:19:13;;;;;;;36.10;32.50;;;;;;;-4.87;100.00;98442.13;109594;1283;22247;-83
2023/12/04 02:21:41;;;;;;;38.80;35.00;;;;;;;-4.88;100.00;98441.70;109571;1276;22222;-82
2023/12/04 02:24:10;;;;;;;36.90;33.30;;;;;;;-4.88;100.00;98438.75;109582;1274;22931;-82
2023/12/04 02:26:58;;;;;;;34.20;30.60;;;;;;;-4.89;100.00;98439.67;109613;1290;22854;-83
2023/12/04 02:29:31;;;;;;;35.10;31.70;;;;;;;-4.86;100.00;98441.31;109578;1286;22214;-82
2023/12/04 02:32:03;;;;;;;31.80;28.70;;;;;;;-4.84;100.00;98442.23;109589;1290;22203;-83
2023/12/04 02:34:33;;;;;;;35.10;31.80;;;;;;;-4.81;100.00;98438.54;109575;1279;22196;-82
2023/12/04 02:37:03;;;;;;;36.30;33.00;;;;;;;-4.83;100.00;98438.44;109588;1286;22236;-82
2023/12/04 02:39:31;;;;;;;46.80;42.00;;;;;;;-4.85;100.00;98438.05;109461;1279;22201;-83
2023/12/04 02:41:59;;;;;;;33.10;30.00;;;;;;;-4.83;100.00;98439.73;109583;1279;23011;-83
2023/12/04 02:44:27;;;;;;;34.00;31.00;;;;;;;-4.77;100.00;98438.45;109568;1284;22319;-84
2023/12/04 02:46:55;;;;;;;35.00;31.90;;;;;;;-4.75;100.00;98435.56;109586;1276;22213;-83
2023/12/04 02:49:23;;;;;;;37.40;33.90;;;;;;;-4.75;100.00;98430.38;109443;1286;22313;-83
2023/12/04 02:51:52;;;;;;;36.10;32.50;;;;;;;-4.76;100.00;98433.22;109572;1283;22212;-82
2023/12/04 02:54:20;;;;;;;33.80;30.80;;;;;;;-4.74;100.00;98439.10;109586;1287;22217;-83
2023/12/04 02:56:48;;;;;;;33.40;30.30;;;;;;;-4.74;100.00;98444.16;109579;1290;22992;-84
2023/12/04 02:59:16;;;;;;;34.80;31.70;;;;;;;-4.73;100.00;98441.32;109591;1283;22245;-84
2023/12/04 03:01:44;;;;;;;35.60;32.40;;;;;;;-4.77;100.00;98442.35;109607;1290;22284;-85
2023/12/04 03:04:12;;;;;;;36.50;33.10;;;;;;;-4.80;100.00;98445.14;109582;1274;22232;-83
2023/12/04 03:06:40;;;;;;;34.40;31.30;;;;;;;-4.88;100.00;98446.05;109592;1286;22415;-83
2023/12/04 03:09:08;;;;;;;31.70;28.80;;;;;;;-4.94;100.00;98436.17;109628;1283;22225;-83
2023/12/04 03:11:40;;;;;;;33.80;30.80;;;;;;;-4.95;100.00;98442.53;109616;1282;22147;-82
2023/12/04 03:14:08;;;;;;;36.20;32.90;;;;;;;-4.96;100.00;98441.82;109579;1290;22302;-83
2023/12/04 03:16:36;;;;;;;38.60;34.90;;;;;;;-5.00;100.00;98447.23;109590;1280;22238;-81
2023/12/04 03:19:04;;;;;;;42.20;38.50;;;;;;;-5.06;100.00;98451.54;109557;1290;22222;-82
2023/12/04 03:21:32;;;;;;;44.20;40.30;;;;;;;-5.11;100.00;98455.40;109572;1283;22267;-83
2023/12/04 03:24:00;;;;;;;39.40;35.60;;;;;;;-5.16;100.00;98453.88;109602;1282;22481;-80
2023/12/04 03:26:28;;;;;;;39.80;35.80;;;;;;;-5.17;100.00;98450.77;109592;1290;22222;-83
2023/12/04 03:28:57;;;;;;;35.00;31.80;;;;;;;-5.19;100.00;98450.18;109485;1289;22347;-84
2023/12/04 03:31:25;;;;;;;35.50;32.30;;;;;;;-5.19;100.00;98446.62;109507;1290;22272;-82
2023/12/04 03:33:53;;;;;;;36.60;33.30;;;;;;;-5.17;100.00;98444.41;109633;1282;22582;-83
2023/12/04 03:36:21;;;;;;;35.40;32.20;;;;;;;-5.20;100.00;98435.73;109627;1288;22221;-82
2023/12/04 03:38:49;;;;;;;38.70;35.30;;;;;;;-5.27;100.00;98435.85;109701;1290;22215;-83
2023/12/04 03:41:17;;;;;;;37.00;33.60;;;;;;;-5.35;100.00;98437.24;109596;1279;22149;-84
2023/12/04 03:43:45;;;;;;;37.40;34.00;;;;;;;-5.43;100.00;98439.57;109577;1283;23058;-83
2023/12/04 03:46:13;;;;;;;33.50;30.30;;;;;;;-5.49;100.00;98436.88;109607;1290;22202;-83
2023/12/04 03:48:41;;;;;;;33.80;30.80;;;;;;;-5.52;100.00;98439.35;109635;1283;22243;-83
2023/12/04 03:51:10;;;;;;;34.70;31.70;;;;;;;-5.54;100.00;98450.63;109571;1290;22178;-82
2023/12/04 03:53:38;;;;;;;37.20;33.90;;;;;;;-5.57;100.00;98447.91;109417;1285;22231;-83
2023/12/04 03:56:06;;;;;;;40.60;37.10;;;;;;;-5.55;100.00;98455.90;109590;1276;22364;-82
2023/12/04 03:58:34;;;;;;;38.80;35.30;;;;;;;-5.59;100.00;98464.34;109601;1286;22207;-82
2023/12/04 04:01:02;;;;;;;36.20;32.90;;;;;;;-5.64;100.00;98469.72;109580;1275;22443;-82
2023/12/04 04:03:30;;;;;;;37.90;34.60;;;;;;;-5.65;100.00;98472.24;109574;1276;22366;-82
2023/12/04 04:05:59;;;;;;;35.00;31.90;;;;;;;-5.66;100.00;98476.79;109442;1285;22863;-82
2023/12/04 04:08:27;;;;;;;33.80;30.90;;;;;;;-5.73;100.00;98477.70;109415;1290;22944;-83
2023/12/04 04:10:57;;;;;;;38.40;34.90;;;;;;;-5.77;100.00;98481.23;109614;1279;22217;-83
2023/12/04 04:13:25;;;;;;;44.70;40.90;;;;;;;-5.80;100.00;98481.95;109604;1283;23045;-82
2023/12/04 04:15:53;;;;;;;44.40;40.40;;;;;;;-5.85;100.00;98480.27;109587;1276;22138;-82
2023/12/04 04:18:21;;;;;;;42.80;39.00;;;;;;;-5.92;100.00;98487.33;109469;1283;22243;-82
2023/12/04 04:20:49;;;;;;;37.20;33.80;;;;;;;-5.98;100.00;98487.58;109581;1283;22352;-84
2023/12/04 04:23:17;;;;;;;35.70;32.60;;;;;;;-6.11;100.00;98486.55;109613;1283;22261;-82
2023/12/04 04:25:45;;;;;;;37.90;34.40;;;;;;;-6.27;100.00;98485.55;109573;1290;22519;-82
2023/12/04 04:28:13;;;;;;;40.50;36.90;;;;;;;-6.24;100.00;98479.21;109579;1290;22589;-82
2023/12/04 04:30:41;;;;;;;46.70;42.40;;;;;;;-6.24;100.00;98477.05;109587;1283;22353;-82
2023/12/04 04:33:11;;;;;;;39.00;35.50;;;;;;;-6.25;100.00;98473.55;109581;1290;23457;-81
2023/12/04 04:35:39;;;;;;;50.20;45.80;;;;;;;-6.29;100.00;98478.08;109598;1279;22144;-81
2023/12/04 04:38:07;;;;;;;51.80;47.40;;;;;;;-6.32;100.00;98478.88;109595;1280;22408;-83
2023/12/04 04:40:35;;;;;;;50.90;46.40;;;;;;;-6.36;100.00;98477.27;109527;1280;22222;-82
2023/12/04 04:43:03;;;;;;;57.90;52.30;;;;;;;-6.39;100.00;98482.30;109581;1283;22332;-82
2023/12/04 04:45:31;;;;;;;57.80;52.20;;;;;;;-6.37;100.00;98483.67;109573;1279;22230;-83
2023/12/04 04:47:59;;;;;;;44.80;40.90;;;;;;;-6.35;100.00;98486.45;109607;1282;22275;-82
2023/12/04 04:50:27;;;;;;;50.70;45.90;;;;;;;-6.44;100.00;98489.45;109601;1277;22316;-82
2023/12/04 04:52:55;;;;;;;55.60;50.60;;;;;;;-6.48;100.00;98485.52;109615;1279;22194;-82
2023/12/04 04:55:23;;;;;;;50.90;46.40;;;;;;;-6.51;100.00;98484.41;109591;1283;23167;-82
2023/12/04 04:58:11;;;;;;;60.90;55.60;;;;;;;-6.60;100.00;98481.75;109616;1279;22173;-83
2023/12/04 05:00:39;;;;;;;65.80;60.00;;;;;;;-6.69;100.00;98488.30;109696;1283;22236;-84
2023/12/04 05:03:08;;;;;;;53.50;48.50;;;;;;;-6.74;100.00;98483.88;109552;1275;22941;-84
2023/12/04 05:05:36;;;;;;;52.00;47.10;;;;;;;-6.89;100.00;98482.68;109614;1275;22319;-83
2023/12/04 05:08:04;;;;;;;47.70;43.30;;;;;;;-7.06;100.00;98489.71;109576;1286;22266;-83
2023/12/04 05:10:32;;;;;;;54.90;49.40;;;;;;;-7.25;100.00;98486.79;109585;1283;22259;-83
2023/12/04 05:13:01;;;;;;;68.40;62.10;;;;;;;-7.40;100.00;98487.39;109602;1289;22273;-82
2023/12/04 05:15:29;;;;;;;54.70;49.70;;;;;;;-7.45;100.00;98479.50;109581;1290;22234;-81
2023/12/04 05:17:58;;;;;;;57.00;51.70;;;;;;;-7.62;100.00;98481.05;109601;1290;23161;-83
2023/12/04 05:20:26;;;;;;;70.90;64.50;;;;;;;-7.72;100.00;98479.17;109581;1283;22261;-82
2023/12/04 05:22:54;;;;;;;72.30;66.00;;;;;;;-7.75;100.00;98480.25;109599;1282;22342;-83
2023/12/04 05:25:22;;;;;;;68.70;62.60;;;;;;;-7.80;100.00;98482.16;109585;1286;22139;-83
2023/12/04 05:27:53;;;;;;;66.00;60.20;;;;;;;-7.87;100.00;98481.23;109599;1267;22280;-83
2023/12/04 05:30:22;;;;;;;69.10;62.80;;;;;;;-7.87;100.00;98478.39;109592;1283;22305;-82
2023/12/04 05:32:49;;;;;;;64.00;58.40;;;;;;;-7.78;100.00;98480.04;109583;1286;22217;-82
2023/12/04 05:35:19;;;;;;;68.80;62.60;;;;;;;-7.67;100.00;98483.87;109598;1283;22364;-82
2023/12/04 05:37:47;;;;;;;59.20;54.20;;;;;;;-7.54;100.00;98480.59;109590;1290;22841;-82
2023/12/04 05:40:15;;;;;;;52.20;47.50;;;;;;;-7.45;100.00;98483.94;109418;1283;22220;-81
2023/12/04 05:42:44;;;;;;;53.90;48.80;;;;;;;-7.40;100.00;98485.61;109498;1283;22211;-83
2023/12/04 05:45:12;;;;;;;48.80;44.30;;;;;;;-7.28;100.00;98483.92;109580;1290;23219;-82
2023/12/04 05:47:40;;;;;;;46.00;41.90;;;;;;;-7.08;100.00;98486.48;109589;1290;22216;-82
2023/12/04 05:50:08;;;;;;;46.20;42.00;;;;;;;-6.94;100.00;98483.99;109586;1279;22219;-84
2023/12/04 05:52:36;;;;;;;47.90;43.50;;;;;;;-6.79;100.00;98481.13;109578;1276;22242;-84
2023/12/04 05:55:04;;;;;;;47.80;43.40;;;;;;;-6.65;100.00;98483.84;109584;1283;22231;-82
2023/12/04 05:57:32;;;;;;;46.10;41.90;;;;;;;-6.52;100.00;98487.61;109603;1279;23065;-83
2023/12/04 06:00:00;;;;;;;46.30;41.90;;;;;;;-6.41;100.00;98487.08;109582;1283;22224;-86
2023/12/04 06:02:31;;;;;;;60.50;55.10;;;;;;;-6.32;100.00;98489.70;109592;1277;22738;-86
2023/12/04 06:04:59;;;;;;;55.90;50.80;;;;;;;-6.26;100.00;98489.27;109589;1290;22192;-86
2023/12/04 06:07:30;;;;;;;130.70;115.70;;;;;;;-6.21;100.00;98485.29;109576;1290;22318;-84
2023/12/04 06:09:58;;;;;;;60.00;54.70;;;;;;;-6.15;100.00;98482.71;109581;1290;22237;-84
2023/12/04 06:12:26;;;;;;;58.30;53.40;;;;;;;-6.08;100.00;98476.48;109590;1286;22242;-85
2023/12/04 06:14:54;;;;;;;58.80;53.60;;;;;;;-6.03;100.00;98475.67;109598;1290;22328;-85
2023/12/04 06:17:22;;;;;;;61.40;55.70;;;;;;;-5.95;100.00;98473.02;109613;1276;22218;-83
2023/12/04 06:19:50;;;;;;;56.10;50.80;;;;;;;-5.88;100.00;98469.08;109606;1283;22399;-83
2023/12/04 06:22:21;;;;;;;54.00;48.80;;;;;;;-5.84;100.00;98471.77;109658;1283;22240;-82
2023/12/04 06:24:49;;;;;;;55.40;50.20;;;;;;;-5.83;100.00;98471.14;109458;1286;23041;-84
2023/12/04 06:27:21;;;;;;;52.00;47.40;;;;;;;-5.80;100.00;98467.63;109607;1290;22219;-84
2023/12/04 06:29:50;;;;;;;61.40;56.00;;;;;;;-5.81;100.00;98466.29;109599;1283;22317;-85
2023/12/04 06:32:20;;;;;;;60.20;54.70;;;;;;;-5.78;100.00;98470.16;109598;1280;22896;-85
2023/12/04 06:34:48;;;;;;;66.20;60.00;;;;;;;-5.83;100.00;98476.32;109602;1290;22244;-82
2023/12/04 06:37:17;;;;;;;73.60;66.80;;;;;;;-5.86;100.00;98475.06;109565;1286;22886;-82
2023/12/04 06:39:48;;;;;;;73.10;66.10;;;;;;;-5.87;100.00;98476.31;109576;1283;22264;-82
2023/12/04 06:42:16;;;;;;;58.90;53.00;;;;;;;-5.95;100.00;98480.84;109587;1276;22787;-82
2023/12/04 06:44:45;;;;;;;62.20;56.30;;;;;;;-6.12;100.00;98475.17;109600;1277;22248;-82
2023/12/04 06:47:18;;;;;;;56.20;51.10;;;;;;;-6.19;100.00;98473.89;109592;1279;22129;-82
2023/12/04 06:49:46;;;;;;;62.40;56.80;;;;;;;-6.11;100.00;98473.69;109596;1282;22273;-82
2023/12/04 06:52:14;;;;;;;61.50;56.20;;;;;;;-6.01;100.00;98471.36;109589;1276;22296;-82
2023/12/04 06:54:42;;;;;;;66.40;60.00;;;;;;;-5.97;100.00;98477.60;109425;1285;22952;-83
2023/12/04 06:57:10;;;;;;;64.60;58.40;;;;;;;-5.98;100.00;98478.91;109601;1290;22235;-83
2023/12/04 07:00:06;;;;;;;63.70;57.60;;;;;;;-5.89;100.00;98483.34;109605;1290;22246;-84
2023/12/04 07:02:50;;;;;;;62.00;56.50;;;;;;;-5.80;100.00;98476.64;109584;1290;22687;-84
2023/12/04 07:05:19;;;;;;;62.70;57.00;;;;;;;-5.69;100.00;98470.86;109611;1290;22154;-83
2023/12/04 07:07:47;;;;;;;59.00;53.50;;;;;;;-5.59;100.00;98470.84;109588;1283;22696;-84
2023/12/04 07:10:16;;;;;;;113.50;96.30;;;;;;;-5.49;100.00;98468.03;109602;1279;23095;-80
2023/12/04 07:12:44;;;;;;;319.80;252.60;;;;;;;-5.40;100.00;98461.17;109620;1282;22215;-81
2023/12/04 07:15:12;;;;;;;294.90;238.80;;;;;;;-5.32;100.00;98460.52;109544;1277;22227;-82
2023/12/04 07:17:45;;;;;;;250.80;215.00;;;;;;;-5.29;100.00;98461.81;109597;1274;22853;-83
2023/12/04 07:20:13;;;;;;;197.00;160.50;;;;;;;-5.27;100.00;98464.91;109597;1290;22178;-85
2023/12/04 07:22:41;;;;;;;122.90;102.20;;;;;;;-5.26;100.00;98461.36;109593;1283;22239;-83
2023/12/04 07:25:09;;;;;;;79.60;72.20;;;;;;;-5.40;100.00;98460.50;109593;1282;22964;-82
2023/12/04 07:27:38;;;;;;;66.00;60.00;;;;;;;-5.54;100.00;98469.28;109596;1279;22123;-81
2023/12/04 07:30:07;;;;;;;77.40;70.00;;;;;;;-5.66;100.00;98463.86;109599;1275;22211;-81
2023/12/04 07:32:35;;;;;;;69.60;63.20;;;;;;;-5.70;100.00;98468.66;109598;1286;22222;-81
2023/12/04 07:35:04;;;;;;;77.50;70.50;;;;;;;-5.74;100.00;98476.68;109590;1282;22290;-82
2023/12/04 07:37:32;;;;;;;89.80;81.20;;;;;;;-5.76;100.00;98474.05;109623;1280;23113;-81
2023/12/04 07:40:05;;;;;;;100.40;90.10;;;;;;;-5.77;100.00;98474.90;109460;1277;22291;-80
2023/12/04 07:42:33;;;;;;;96.00;85.70;;;;;;;-5.77;100.00;98474.93;109602;1278;22743;-80
2023/12/04 07:45:02;;;;;;;85.80;77.70;;;;;;;-5.73;100.00;98478.83;109601;1290;22378;-80
2023/12/04 07:47:33;;;;;;;74.50;67.50;;;;;;;-5.72;100.00;98487.34;109608;1279;22229;-80
2023/12/04 07:50:03;;;;;;;78.10;71.10;;;;;;;-5.74;100.00;98485.38;109520;1276;22868;-81
2023/12/04 07:52:31;;;;;;;88.20;76.40;;;;;;;-5.78;100.00;98485.39;109574;1276;22266;-81
2023/12/04 07:55:00;;;;;;;67.60;61.70;;;;;;;-5.76;100.00;98488.41;109584;1267;22260;-81
2023/12/04 07:57:29;;;;;;;65.20;59.20;;;;;;;-5.65;100.00;98486.50;109611;1290;22862;-81
2023/12/04 07:59:57;;;;;;;68.10;62.00;;;;;;;-5.59;100.00;98490.23;109557;1290;22124;-83
2023/12/04 08:02:25;;;;;;;67.80;61.70;;;;;;;-5.54;100.00;98485.69;109559;1276;23132;-82
2023/12/04 08:04:53;;;;;;;68.10;62.00;;;;;;;-5.46;100.00;98479.73;109555;1283;22239;-82
2023/12/04 08:07:22;;;;;;;71.40;64.70;;;;;;;-5.40;100.00;98480.67;109565;1282;22862;-82
2023/12/04 08:09:50;;;;;;;74.50;67.30;;;;;;;-5.34;100.00;98477.35;109573;1283;22281;-82
2023/12/04 08:12:21;;;;;;;73.90;67.20;;;;;;;-5.22;100.00;98473.25;109588;1290;22922;-82
2023/12/04 08:14:49;;;;;;;68.90;62.70;;;;;;;-5.05;100.00;98473.50;109603;1283;22816;-82
2023/12/04 08:17:17;;;;;;;73.80;66.90;;;;;;;-4.85;100.00;98473.73;109581;1286;22228;-81
2023/12/04 08:19:45;;;;;;;78.80;71.80;;;;;;;-4.66;100.00;98473.92;109528;1277;23254;-81
2023/12/04 08:22:16;;;;;;;85.70;77.90;;;;;;;-4.51;100.00;98474.02;109589;1282;22218;-81
2023/12/04 08:24:44;;;;;;;93.00;84.80;;;;;;;-4.34;100.00;98475.04;109585;1279;23012;-81
2023/12/04 08:27:12;;;;;;;93.20;84.60;;;;;;;-4.19;100.00;98471.77;109603;1282;22669;-83
2023/12/04 08:29:40;;;;;;;76.20;69.30;;;;;;;-4.06;100.00;98474.63;109586;1283;22213;-81
2023/12/04 08:32:08;;;;;;;84.00;76.50;;;;;;;-3.96;100.00;98476.55;109571;1282;22280;-82
2023/12/04 08:34:37;;;;;;;71.40;65.10;;;;;;;-3.87;100.00;98477.84;109526;1283;22250;-81
2023/12/04 08:37:06;;;;;;;67.80;61.60;;;;;;;-3.74;100.00;98480.61;109580;1274;22921;-83
2023/12/04 08:39:34;;;;;;;60.60;55.20;;;;;;;-3.60;100.00;98486.06;109594;1279;22301;-83
2023/12/04 08:42:03;;;;;;;61.60;55.80;;;;;;;-3.44;100.00;98484.08;109408;1274;22174;-82
2023/12/04 08:44:41;;;;;;;59.00;53.60;;;;;;;-3.33;100.00;98487.83;109431;1290;22239;-82
2023/12/04 08:47:09;;;;;;;59.20;54.20;;;;;;;-3.22;100.00;98486.50;109628;1283;22204;-83
2023/12/04 08:49:40;;;;;;;60.00;54.80;;;;;;;-3.13;100.00;98487.80;109648;1279;22222;-83
2023/12/04 08:52:16;;;;;;;64.60;58.80;;;;;;;-3.02;100.00;98493.92;109609;1282;22251;-83
2023/12/04 08:54:44;;;;;;;63.60;58.10;;;;;;;-2.97;100.00;98493.52;109699;1290;22229;-82
2023/12/04 08:57:12;;;;;;;60.60;55.30;;;;;;;-2.90;100.00;98494.30;109623;1290;22864;-83
2023/12/04 08:59:40;;;;;;;56.80;51.80;;;;;;;-2.87;100.00;98490.05;109680;1290;22130;-83
2023/12/04 09:02:08;;;;;;;53.20;48.50;;;;;;;-2.76;100.00;98494.88;109727;1290;22978;-83
2023/12/04 09:04:39;;;;;;;54.90;50.00;;;;;;;-2.65;100.00;98493.24;109592;1290;22102;-83
2023/12/04 09:07:07;;;;;;;59.20;53.90;;;;;;;-2.54;100.00;98489.83;109596;1290;22195;-82
2023/12/04 09:09:38;;;;;;;60.00;54.60;;;;;;;-2.45;100.00;98487.60;109604;1286;22274;-83
2023/12/04 09:12:08;;;;;;;61.10;55.70;;;;;;;-2.37;100.00;98488.04;109593;1290;22284;-82
2023/12/04 09:14:37;;;;;;;60.00;54.60;;;;;;;-2.29;100.00;98482.95;109604;1290;22229;-81
2023/12/04 09:17:05;;;;;;;56.20;51.10;;;;;;;-2.21;100.00;98483.34;109603;1290;23187;-82
2023/12/04 09:19:33;;;;;;;56.80;51.60;;;;;;;-2.18;100.00;98482.32;109487;1290;22226;-81
2023/12/04 09:22:02;;;;;;;57.70;52.40;;;;;;;-2.10;100.00;98480.33;109499;1290;22269;-81
2023/12/04 09:24:44;;;;;;;52.30;47.40;;;;;;;-2.07;100.00;98481.02;109607;1290;22312;-81
2023/12/04 09:27:12;;;;;;;53.10;48.30;;;;;;;-2.08;100.00;98474.97;109405;1290;22134;-81
2023/12/04 09:29:41;;;;;;;47.20;42.80;;;;;;;-2.02;100.00;98472.54;109604;1286;22238;-81
2023/12/04 09:32:10;;;;;;;45.40;41.20;;;;;;;-1.96;100.00;98472.33;109605;1286;22312;-84
2023/12/04 09:34:38;;;;;;;46.30;41.90;;;;;;;-1.89;100.00;98468.05;109590;1290;22236;-80
2023/12/04 09:37:07;;;;;;;47.20;43.10;;;;;;;-1.82;100.00;98459.84;109599;1290;22284;-82
2023/12/04 09:39:39;;;;;;;44.10;40.10;;;;;;;-1.70;100.00;98458.48;109638;1290;22316;-82
2023/12/04 09:42:09;;;;;;;43.70;39.70;;;;;;;-1.56;100.00;98450.91;109629;1282;22173;-82
2023/12/04 09:44:37;;;;;;;41.90;38.20;;;;;;;-1.44;100.00;98443.06;109585;1276;22291;-80
2023/12/04 09:47:08;;;;;;;41.50;37.70;;;;;;;-1.35;100.00;98441.61;109532;1290;22119;-80
2023/12/04 09:49:37;;;;;;;36.30;33.00;;;;;;;-1.30;100.00;98433.86;109584;1279;22170;-81
2023/12/04 09:52:08;;;;;;;36.70;33.50;;;;;;;-1.29;100.00;98433.34;109612;1276;22481;-81
2023/12/04 09:54:37;;;;;;;38.10;34.60;;;;;;;-1.24;100.00;98423.63;109505;1283;22222;-81
2023/12/04 09:57:05;;;;;;;39.50;35.80;;;;;;;-1.19;100.00;98425.20;109593;1283;22231;-81
2023/12/04 09:59:35;;;;;;;42.60;38.70;;;;;;;-1.12;100.00;98420.77;109592;1282;22244;-80
2023/12/04 10:02:04;;;;;;;43.40;39.50;;;;;;;-1.05;100.00;98415.38;109584;1289;22430;-80
2023/12/04 10:04:34;;;;;;;35.50;32.00;;;;;;;-0.97;100.00;98412.09;109607;1277;23296;-80
2023/12/04 10:07:04;;;;;;;32.50;29.50;;;;;;;-0.80;100.00;98408.69;109592;1274;22309;-81
2023/12/04 10:09:32;;;;;;;33.60;30.50;;;;;;;-0.64;100.00;98409.12;109602;1279;22328;-81
2023/12/04 10:12:01;;;;;;;33.00;29.70;;;;;;;-0.54;100.00;98404.67;109599;1282;22300;-82
2023/12/04 10:14:30;;;;;;;29.10;26.60;;;;;;;-0.45;100.00;98405.65;109579;1290;23102;-80
2023/12/04 10:16:59;;;;;;;29.20;26.50;;;;;;;-0.44;100.00;98408.20;109613;1277;22202;-81
2023/12/04 10:19:31;;;;;;;30.30;27.40;;;;;;;-0.48;100.00;98408.80;109667;1290;22977;-82
2023/12/04 10:21:59;;;;;;;30.00;27.00;;;;;;;-0.49;100.00;98408.73;109611;1290;22290;-80
2023/12/04 10:24:36;;;;;;;30.90;28.10;;;;;;;-0.47;100.00;98404.60;109605;1283;22756;-81
2023/12/04 10:27:08;;;;;;;31.70;28.50;;;;;;;-0.49;100.00;98404.27;109582;1290;22882;-81
2023/12/04 10:29:50;;;;;;;33.30;30.00;;;;;;;-0.53;100.00;98396.09;109590;1290;23055;-81
2023/12/04 10:32:21;;;;;;;34.60;31.00;;;;;;;-0.51;100.00;98393.50;109582;1290;22355;-81
2023/12/04 10:34:50;;;;;;;29.40;26.60;;;;;;;-0.53;100.00;98394.66;109603;1282;22304;-80
2023/12/04 10:37:20;;;;;;;31.00;28.00;;;;;;;-0.59;100.00;98388.56;109605;1282;22716;-81
2023/12/04 10:39:50;;;;;;;32.30;29.30;;;;;;;-0.59;100.00;98387.95;109565;1290;22258;-79
2023/12/04 10:42:32;;;;;;;32.30;29.10;;;;;;;-0.55;100.00;98387.27;109368;1290;22177;-82
2023/12/04 10:45:00;;;;;;;30.70;27.90;;;;;;;-0.45;100.00;98385.36;109576;1290;22271;-81
2023/12/04 10:47:32;;;;;;;29.50;26.90;;;;;;;-0.36;100.00;98378.66;109583;1282;22198;-89
2023/12/04 10:50:02;;;;;;;32.30;29.30;;;;;;;-0.31;100.00;98378.89;109593;1274;22268;-88
2023/12/04 10:52:31;;;;;;;32.50;29.60;;;;;;;-0.32;100.00;98378.50;109608;1286;22224;-90
2023/12/04 10:54:59;;;;;;;31.10;28.20;;;;;;;-0.25;99.87;98375.62;109546;1283;22241;-88
2023/12/04 10:57:36;;;;;;;27.30;24.80;;;;;;;-0.26;98.53;98373.27;109619;1286;22434;-88
2023/12/04 11:00:06;;;;;;;27.10;24.60;;;;;;;-0.26;97.56;98372.26;109631;1286;22148;-87
2023/12/04 11:02:35;;;;;;;26.00;23.70;;;;;;;-0.27;97.85;98369.52;109622;1286;22156;-89
2023/12/04 11:05:13;;;;;;;45.70;41.50;;;;;;;-0.25;96.74;98364.79;109613;1286;22295;-89
2023/12/04 11:07:53;;;;;;;43.50;39.10;;;;;;;-0.24;97.45;98365.60;109494;1280;22260;-89
2023/12/04 11:10:50;;;;;;;31.70;28.80;;;;;;;-0.08;98.65;98367.48;109594;1284;22235;-89